sensor_id;sensor_type;location;lat;lon;timestamp;P1;durP1;ratioP1;P2;durP2;ratioP2
78205;SDS011;67480;48.920;12.880;2024-03-08T00:00:33;23.50;;;15.25;;
78205;SDS011;67480;48.920;12.880;2024-03-08T00:02:59;23.60;;;15.95;;
78205;SDS011;67480;48.920;12.880;2024-03-08T00:05:26;20.42;;;14.98;;
78205;SDS011;67480;48.920;12.880;2024-03-08T00:07:51;21.50;;;16.52;;
78205;SDS011;67480;48.920;12.880;2024-03-08T00:10:16;21.33;;;14.70;;
78205;SDS011;67480;48.920;12.880;2024-03-08T00:12:43;21.92;;;16.08;;
78205;SDS011;67480;48.920;12.880;2024-03-08T00:15:13;22.63;;;16.52;;
78205;SDS011;67480;48.920;12.880;2024-03-08T00:17:40;21.55;;;16.40;;
78205;SDS011;67480;48.920;12.880;2024-03-08T00:20:06;20.92;;;16.58;;
78205;SDS011;67480;48.920;12.880;2024-03-08T00:22:35;20.83;;;15.73;;
78205;SDS011;67480;48.920;12.880;2024-03-08T00:25:02;20.60;;;15.57;;
78205;SDS011;67480;48.920;12.880;2024-03-08T00:27:28;21.95;;;17.15;;
78205;SDS011;67480;48.920;12.880;2024-03-08T00:29:55;19.75;;;15.65;;
78205;SDS011;67480;48.920;12.880;2024-03-08T00:32:21;20.40;;;15.45;;
78205;SDS011;67480;48.920;12.880;2024-03-08T00:34:49;22.02;;;16.60;;
78205;SDS011;67480;48.920;12.880;2024-03-08T00:37:17;24.00;;;16.92;;
78205;SDS011;67480;48.920;12.880;2024-03-08T00:39:42;22.38;;;16.27;;
78205;SDS011;67480;48.920;12.880;2024-03-08T00:42:08;19.95;;;15.30;;
78205;SDS011;67480;48.920;12.880;2024-03-08T00:44:33;19.98;;;15.35;;
78205;SDS011;67480;48.920;12.880;2024-03-08T00:46:58;21.63;;;16.25;;
78205;SDS011;67480;48.920;12.880;2024-03-08T00:49:24;20.80;;;16.42;;
78205;SDS011;67480;48.920;12.880;2024-03-08T00:51:50;22.60;;;15.93;;
78205;SDS011;67480;48.920;12.880;2024-03-08T00:54:15;19.73;;;15.07;;
78205;SDS011;67480;48.920;12.880;2024-03-08T00:56:41;20.50;;;15.18;;
78205;SDS011;67480;48.920;12.880;2024-03-08T00:59:07;22.25;;;16.23;;
78205;SDS011;67480;48.920;12.880;2024-03-08T01:01:32;22.05;;;15.95;;
78205;SDS011;67480;48.920;12.880;2024-03-08T01:03:58;20.73;;;15.70;;
78205;SDS011;67480;48.920;12.880;2024-03-08T01:06:23;20.70;;;16.02;;
78205;SDS011;67480;48.920;12.880;2024-03-08T01:08:49;21.85;;;15.85;;
78205;SDS011;67480;48.920;12.880;2024-03-08T01:11:16;22.33;;;15.95;;
78205;SDS011;67480;48.920;12.880;2024-03-08T01:13:43;22.08;;;15.70;;
78205;SDS011;67480;48.920;12.880;2024-03-08T01:16:08;21.25;;;14.95;;
78205;SDS011;67480;48.920;12.880;2024-03-08T01:18:34;21.88;;;15.18;;
78205;SDS011;67480;48.920;12.880;2024-03-08T01:20:59;21.08;;;15.07;;
78205;SDS011;67480;48.920;12.880;2024-03-08T01:23:24;19.88;;;14.65;;
78205;SDS011;67480;48.920;12.880;2024-03-08T01:25:50;18.50;;;14.15;;
78205;SDS011;67480;48.920;12.880;2024-03-08T01:28:21;20.25;;;15.00;;
78205;SDS011;67480;48.920;12.880;2024-03-08T01:30:51;20.05;;;14.63;;
78205;SDS011;67480;48.920;12.880;2024-03-08T01:33:21;20.95;;;15.18;;
78205;SDS011;67480;48.920;12.880;2024-03-08T01:35:50;22.23;;;15.95;;
78205;SDS011;67480;48.920;12.880;2024-03-08T01:38:16;20.42;;;14.40;;
78205;SDS011;67480;48.920;12.880;2024-03-08T01:40:42;18.33;;;14.15;;
78205;SDS011;67480;48.920;12.880;2024-03-08T01:43:17;18.35;;;13.93;;
78205;SDS011;67480;48.920;12.880;2024-03-08T01:45:44;19.50;;;14.18;;
78205;SDS011;67480;48.920;12.880;2024-03-08T01:48:09;20.77;;;14.93;;
78205;SDS011;67480;48.920;12.880;2024-03-08T01:50:35;17.17;;;13.07;;
78205;SDS011;67480;48.920;12.880;2024-03-08T01:53:01;18.90;;;13.60;;
78205;SDS011;67480;48.920;12.880;2024-03-08T01:55:27;18.58;;;13.82;;
78205;SDS011;67480;48.920;12.880;2024-03-08T01:57:52;17.35;;;13.50;;
78205;SDS011;67480;48.920;12.880;2024-03-08T02:00:18;21.00;;;13.60;;
78205;SDS011;67480;48.920;12.880;2024-03-08T02:02:45;19.92;;;13.55;;
78205;SDS011;67480;48.920;12.880;2024-03-08T02:05:11;17.20;;;12.82;;
78205;SDS011;67480;48.920;12.880;2024-03-08T02:07:40;17.98;;;13.38;;
78205;SDS011;67480;48.920;12.880;2024-03-08T02:10:09;19.25;;;14.18;;
78205;SDS011;67480;48.920;12.880;2024-03-08T02:12:36;18.83;;;13.18;;
78205;SDS011;67480;48.920;12.880;2024-03-08T02:15:03;17.30;;;13.38;;
78205;SDS011;67480;48.920;12.880;2024-03-08T02:17:28;17.25;;;12.50;;
78205;SDS011;67480;48.920;12.880;2024-03-08T02:19:55;18.50;;;13.63;;
78205;SDS011;67480;48.920;12.880;2024-03-08T02:22:20;18.85;;;13.75;;
78205;SDS011;67480;48.920;12.880;2024-03-08T02:24:46;15.43;;;12.13;;
78205;SDS011;67480;48.920;12.880;2024-03-08T02:27:11;18.55;;;12.60;;
78205;SDS011;67480;48.920;12.880;2024-03-08T02:29:37;18.23;;;13.05;;
78205;SDS011;67480;48.920;12.880;2024-03-08T02:32:02;16.48;;;12.80;;
78205;SDS011;67480;48.920;12.880;2024-03-08T02:34:28;18.08;;;12.45;;
78205;SDS011;67480;48.920;12.880;2024-03-08T02:36:54;20.23;;;13.40;;
78205;SDS011;67480;48.920;12.880;2024-03-08T02:39:21;16.25;;;12.30;;
78205;SDS011;67480;48.920;12.880;2024-03-08T02:41:47;15.77;;;11.45;;
78205;SDS011;67480;48.920;12.880;2024-03-08T02:44:12;17.25;;;12.48;;
78205;SDS011;67480;48.920;12.880;2024-03-08T02:46:38;17.70;;;12.52;;
78205;SDS011;67480;48.920;12.880;2024-03-08T02:49:03;16.58;;;12.80;;
78205;SDS011;67480;48.920;12.880;2024-03-08T02:51:29;18.05;;;12.70;;
78205;SDS011;67480;48.920;12.880;2024-03-08T02:53:55;16.42;;;11.82;;
78205;SDS011;67480;48.920;12.880;2024-03-08T02:56:21;12.93;;;10.57;;
78205;SDS011;67480;48.920;12.880;2024-03-08T02:58:47;16.02;;;11.35;;
78205;SDS011;67480;48.920;12.880;2024-03-08T03:01:13;15.68;;;11.50;;
78205;SDS011;67480;48.920;12.880;2024-03-08T03:03:40;14.52;;;11.15;;
78205;SDS011;67480;48.920;12.880;2024-03-08T03:06:06;14.93;;;10.93;;
78205;SDS011;67480;48.920;12.880;2024-03-08T03:08:32;18.45;;;12.02;;
78205;SDS011;67480;48.920;12.880;2024-03-08T03:10:57;15.57;;;11.20;;
78205;SDS011;67480;48.920;12.880;2024-03-08T03:13:23;18.27;;;12.07;;
78205;SDS011;67480;48.920;12.880;2024-03-08T03:15:48;15.63;;;11.10;;
78205;SDS011;67480;48.920;12.880;2024-03-08T03:18:14;17.02;;;11.88;;
78205;SDS011;67480;48.920;12.880;2024-03-08T03:20:40;15.05;;;10.45;;
78205;SDS011;67480;48.920;12.880;2024-03-08T03:23:07;15.40;;;10.90;;
78205;SDS011;67480;48.920;12.880;2024-03-08T03:25:38;16.05;;;10.50;;
78205;SDS011;67480;48.920;12.880;2024-03-08T03:28:06;13.93;;;10.45;;
78205;SDS011;67480;48.920;12.880;2024-03-08T03:30:32;16.00;;;11.00;;
78205;SDS011;67480;48.920;12.880;2024-03-08T03:32:58;16.38;;;11.20;;
78205;SDS011;67480;48.920;12.880;2024-03-08T03:35:27;16.27;;;10.82;;
78205;SDS011;67480;48.920;12.880;2024-03-08T03:37:54;17.38;;;11.65;;
78205;SDS011;67480;48.920;12.880;2024-03-08T03:40:32;15.95;;;11.52;;
78205;SDS011;67480;48.920;12.880;2024-03-08T03:43:01;15.70;;;10.63;;
78205;SDS011;67480;48.920;12.880;2024-03-08T03:45:30;15.43;;;10.57;;
78205;SDS011;67480;48.920;12.880;2024-03-08T03:48:01;17.42;;;10.98;;
78205;SDS011;67480;48.920;12.880;2024-03-08T03:50:27;16.98;;;10.90;;
78205;SDS011;67480;48.920;12.880;2024-03-08T03:52:52;15.30;;;11.30;;
78205;SDS011;67480;48.920;12.880;2024-03-08T03:55:18;16.88;;;10.27;;
78205;SDS011;67480;48.920;12.880;2024-03-08T03:57:44;16.98;;;11.27;;
78205;SDS011;67480;48.920;12.880;2024-03-08T04:00:11;14.02;;;10.45;;
78205;SDS011;67480;48.920;12.880;2024-03-08T04:02:40;17.70;;;11.55;;
78205;SDS011;67480;48.920;12.880;2024-03-08T04:05:06;16.35;;;10.63;;
78205;SDS011;67480;48.920;12.880;2024-03-08T04:07:32;14.93;;;10.45;;
78205;SDS011;67480;48.920;12.880;2024-03-08T04:09:59;16.13;;;10.57;;
78205;SDS011;67480;48.920;12.880;2024-03-08T04:12:25;16.23;;;10.40;;
78205;SDS011;67480;48.920;12.880;2024-03-08T04:14:50;14.30;;;10.10;;
78205;SDS011;67480;48.920;12.880;2024-03-08T04:17:16;16.30;;;11.00;;
78205;SDS011;67480;48.920;12.880;2024-03-08T04:19:43;14.05;;;10.32;;
78205;SDS011;67480;48.920;12.880;2024-03-08T04:22:08;14.13;;;10.25;;
78205;SDS011;67480;48.920;12.880;2024-03-08T04:24:34;15.32;;;10.60;;
78205;SDS011;67480;48.920;12.880;2024-03-08T04:26:59;16.38;;;10.95;;
78205;SDS011;67480;48.920;12.880;2024-03-08T04:29:25;15.50;;;11.00;;
78205;SDS011;67480;48.920;12.880;2024-03-08T04:31:51;15.45;;;10.20;;
78205;SDS011;67480;48.920;12.880;2024-03-08T04:34:19;13.32;;;9.55;;
78205;SDS011;67480;48.920;12.880;2024-03-08T04:36:45;11.60;;;9.13;;
78205;SDS011;67480;48.920;12.880;2024-03-08T04:39:10;14.75;;;10.27;;
78205;SDS011;67480;48.920;12.880;2024-03-08T04:41:38;14.65;;;10.52;;
78205;SDS011;67480;48.920;12.880;2024-03-08T04:44:04;14.95;;;9.73;;
78205;SDS011;67480;48.920;12.880;2024-03-08T04:46:29;15.15;;;10.05;;
78205;SDS011;67480;48.920;12.880;2024-03-08T04:48:55;14.57;;;9.95;;
78205;SDS011;67480;48.920;12.880;2024-03-08T04:51:20;15.65;;;9.93;;
78205;SDS011;67480;48.920;12.880;2024-03-08T04:53:45;13.75;;;9.20;;
78205;SDS011;67480;48.920;12.880;2024-03-08T04:56:11;11.50;;;8.82;;
78205;SDS011;67480;48.920;12.880;2024-03-08T04:58:36;14.43;;;9.43;;
78205;SDS011;67480;48.920;12.880;2024-03-08T05:01:02;12.93;;;8.77;;
78205;SDS011;67480;48.920;12.880;2024-03-08T05:03:27;13.98;;;9.25;;
78205;SDS011;67480;48.920;12.880;2024-03-08T05:05:53;13.10;;;8.82;;
78205;SDS011;67480;48.920;12.880;2024-03-08T05:08:18;13.10;;;9.50;;
78205;SDS011;67480;48.920;12.880;2024-03-08T05:10:44;13.60;;;9.60;;
78205;SDS011;67480;48.920;12.880;2024-03-08T05:13:10;12.00;;;8.85;;
78205;SDS011;67480;48.920;12.880;2024-03-08T05:15:35;10.77;;;7.95;;
78205;SDS011;67480;48.920;12.880;2024-03-08T05:18:01;10.80;;;8.23;;
78205;SDS011;67480;48.920;12.880;2024-03-08T05:20:27;14.05;;;8.85;;
78205;SDS011;67480;48.920;12.880;2024-03-08T05:22:52;14.68;;;9.35;;
78205;SDS011;67480;48.920;12.880;2024-03-08T05:25:17;14.25;;;8.52;;
78205;SDS011;67480;48.920;12.880;2024-03-08T05:27:43;12.70;;;8.57;;
78205;SDS011;67480;48.920;12.880;2024-03-08T05:30:08;12.73;;;8.57;;
78205;SDS011;67480;48.920;12.880;2024-03-08T05:32:40;12.02;;;8.48;;
78205;SDS011;67480;48.920;12.880;2024-03-08T05:35:11;13.23;;;9.35;;
78205;SDS011;67480;48.920;12.880;2024-03-08T05:37:37;12.82;;;8.60;;
78205;SDS011;67480;48.920;12.880;2024-03-08T05:40:04;12.93;;;8.52;;
78205;SDS011;67480;48.920;12.880;2024-03-08T05:42:34;11.85;;;9.05;;
78205;SDS011;67480;48.920;12.880;2024-03-08T05:45:00;13.23;;;9.02;;
78205;SDS011;67480;48.920;12.880;2024-03-08T05:47:25;13.82;;;9.98;;
78205;SDS011;67480;48.920;12.880;2024-03-08T05:49:50;13.07;;;9.50;;
78205;SDS011;67480;48.920;12.880;2024-03-08T05:52:18;13.95;;;9.15;;
78205;SDS011;67480;48.920;12.880;2024-03-08T05:54:43;13.63;;;9.13;;
78205;SDS011;67480;48.920;12.880;2024-03-08T05:57:10;12.95;;;8.88;;
78205;SDS011;67480;48.920;12.880;2024-03-08T05:59:36;13.90;;;8.82;;
78205;SDS011;67480;48.920;12.880;2024-03-08T06:02:01;10.02;;;8.55;;
78205;SDS011;67480;48.920;12.880;2024-03-08T06:04:27;11.95;;;9.15;;
78205;SDS011;67480;48.920;12.880;2024-03-08T06:06:52;13.63;;;8.82;;
78205;SDS011;67480;48.920;12.880;2024-03-08T06:09:20;11.90;;;8.32;;
78205;SDS011;67480;48.920;12.880;2024-03-08T06:11:48;12.57;;;9.00;;
78205;SDS011;67480;48.920;12.880;2024-03-08T06:14:13;12.65;;;8.90;;
78205;SDS011;67480;48.920;12.880;2024-03-08T06:16:43;13.15;;;8.10;;
78205;SDS011;67480;48.920;12.880;2024-03-08T06:19:12;12.15;;;8.85;;
78205;SDS011;67480;48.920;12.880;2024-03-08T06:21:37;12.45;;;8.05;;
78205;SDS011;67480;48.920;12.880;2024-03-08T06:24:03;10.95;;;8.02;;
78205;SDS011;67480;48.920;12.880;2024-03-08T06:26:29;11.52;;;7.82;;
78205;SDS011;67480;48.920;12.880;2024-03-08T06:28:54;10.70;;;8.13;;
78205;SDS011;67480;48.920;12.880;2024-03-08T06:31:20;12.38;;;8.70;;
78205;SDS011;67480;48.920;12.880;2024-03-08T06:33:45;12.13;;;8.82;;
78205;SDS011;67480;48.920;12.880;2024-03-08T06:36:11;11.27;;;8.60;;
78205;SDS011;67480;48.920;12.880;2024-03-08T06:38:39;11.57;;;8.45;;
78205;SDS011;67480;48.920;12.880;2024-03-08T06:41:08;21.63;;;13.38;;
78205;SDS011;67480;48.920;12.880;2024-03-08T06:43:34;13.82;;;9.77;;
78205;SDS011;67480;48.920;12.880;2024-03-08T06:45:59;13.48;;;9.27;;
78205;SDS011;67480;48.920;12.880;2024-03-08T06:48:25;13.05;;;9.25;;
78205;SDS011;67480;48.920;12.880;2024-03-08T06:50:54;12.45;;;9.18;;
78205;SDS011;67480;48.920;12.880;2024-03-08T06:53:21;11.80;;;8.95;;
78205;SDS011;67480;48.920;12.880;2024-03-08T06:55:47;11.25;;;8.70;;
78205;SDS011;67480;48.920;12.880;2024-03-08T06:58:12;10.98;;;9.15;;
78205;SDS011;67480;48.920;12.880;2024-03-08T07:00:37;13.43;;;9.27;;
78205;SDS011;67480;48.920;12.880;2024-03-08T07:03:03;11.63;;;8.75;;
78205;SDS011;67480;48.920;12.880;2024-03-08T07:05:31;12.50;;;8.88;;
78205;SDS011;67480;48.920;12.880;2024-03-08T07:07:57;13.90;;;9.13;;
78205;SDS011;67480;48.920;12.880;2024-03-08T07:10:23;14.10;;;9.52;;
78205;SDS011;67480;48.920;12.880;2024-03-08T07:12:49;13.32;;;9.27;;
78205;SDS011;67480;48.920;12.880;2024-03-08T07:15:15;13.80;;;10.38;;
78205;SDS011;67480;48.920;12.880;2024-03-08T07:17:41;16.27;;;10.20;;
78205;SDS011;67480;48.920;12.880;2024-03-08T07:20:09;15.02;;;10.50;;
78205;SDS011;67480;48.920;12.880;2024-03-08T07:22:37;15.38;;;11.05;;
78205;SDS011;67480;48.920;12.880;2024-03-08T07:25:04;16.05;;;11.07;;
78205;SDS011;67480;48.920;12.880;2024-03-08T07:27:33;14.75;;;10.98;;
78205;SDS011;67480;48.920;12.880;2024-03-08T07:30:04;14.20;;;10.15;;
78205;SDS011;67480;48.920;12.880;2024-03-08T07:32:30;12.98;;;9.80;;
78205;SDS011;67480;48.920;12.880;2024-03-08T07:34:56;15.60;;;10.80;;
78205;SDS011;67480;48.920;12.880;2024-03-08T07:37:22;16.98;;;10.52;;
78205;SDS011;67480;48.920;12.880;2024-03-08T07:39:48;16.17;;;11.27;;
78205;SDS011;67480;48.920;12.880;2024-03-08T07:42:13;16.05;;;10.98;;
78205;SDS011;67480;48.920;12.880;2024-03-08T07:44:39;14.93;;;10.52;;
78205;SDS011;67480;48.920;12.880;2024-03-08T07:47:05;13.15;;;9.63;;
78205;SDS011;67480;48.920;12.880;2024-03-08T07:49:32;14.07;;;10.50;;
78205;SDS011;67480;48.920;12.880;2024-03-08T07:51:59;14.13;;;10.43;;
78205;SDS011;67480;48.920;12.880;2024-03-08T07:54:24;15.05;;;10.80;;
78205;SDS011;67480;48.920;12.880;2024-03-08T07:56:51;15.25;;;10.80;;
78205;SDS011;67480;48.920;12.880;2024-03-08T07:59:17;16.08;;;11.25;;
78205;SDS011;67480;48.920;12.880;2024-03-08T08:01:43;14.30;;;9.70;;
78205;SDS011;67480;48.920;12.880;2024-03-08T08:04:09;13.45;;;10.00;;
78205;SDS011;67480;48.920;12.880;2024-03-08T08:06:37;15.50;;;10.73;;
78205;SDS011;67480;48.920;12.880;2024-03-08T08:09:06;14.90;;;10.90;;
78205;SDS011;67480;48.920;12.880;2024-03-08T08:11:39;14.85;;;11.13;;
78205;SDS011;67480;48.920;12.880;2024-03-08T08:14:05;17.88;;;11.40;;
78205;SDS011;67480;48.920;12.880;2024-03-08T08:16:34;16.17;;;11.48;;
78205;SDS011;67480;48.920;12.880;2024-03-08T08:19:01;14.43;;;10.63;;
78205;SDS011;67480;48.920;12.880;2024-03-08T08:21:28;15.40;;;10.65;;
78205;SDS011;67480;48.920;12.880;2024-03-08T08:23:54;14.35;;;10.52;;
78205;SDS011;67480;48.920;12.880;2024-03-08T08:26:19;13.90;;;9.65;;
78205;SDS011;67480;48.920;12.880;2024-03-08T08:28:46;16.17;;;10.73;;
78205;SDS011;67480;48.920;12.880;2024-03-08T08:31:11;13.98;;;10.00;;
78205;SDS011;67480;48.920;12.880;2024-03-08T08:33:38;14.10;;;9.68;;
78205;SDS011;67480;48.920;12.880;2024-03-08T08:36:03;13.65;;;9.60;;
78205;SDS011;67480;48.920;12.880;2024-03-08T08:38:29;12.60;;;8.45;;
78205;SDS011;67480;48.920;12.880;2024-03-08T08:40:54;11.98;;;8.68;;
78205;SDS011;67480;48.920;12.880;2024-03-08T08:43:19;13.63;;;9.45;;
78205;SDS011;67480;48.920;12.880;2024-03-08T08:45:49;11.57;;;8.63;;
78205;SDS011;67480;48.920;12.880;2024-03-08T08:48:15;12.23;;;8.40;;
78205;SDS011;67480;48.920;12.880;2024-03-08T08:50:41;12.23;;;8.38;;
78205;SDS011;67480;48.920;12.880;2024-03-08T08:53:06;13.75;;;8.30;;
78205;SDS011;67480;48.920;12.880;2024-03-08T08:55:32;9.77;;;7.60;;
78205;SDS011;67480;48.920;12.880;2024-03-08T08:58:00;10.48;;;7.18;;
78205;SDS011;67480;48.920;12.880;2024-03-08T09:00:27;10.63;;;7.38;;
78205;SDS011;67480;48.920;12.880;2024-03-08T09:02:52;9.88;;;7.50;;
78205;SDS011;67480;48.920;12.880;2024-03-08T09:05:20;8.82;;;7.18;;
78205;SDS011;67480;48.920;12.880;2024-03-08T09:07:46;11.10;;;6.95;;
78205;SDS011;67480;48.920;12.880;2024-03-08T09:10:11;9.20;;;6.35;;
78205;SDS011;67480;48.920;12.880;2024-03-08T09:12:38;8.63;;;6.38;;
78205;SDS011;67480;48.920;12.880;2024-03-08T09:15:04;9.85;;;6.40;;
78205;SDS011;67480;48.920;12.880;2024-03-08T09:17:30;8.90;;;5.85;;
78205;SDS011;67480;48.920;12.880;2024-03-08T09:19:56;7.53;;;5.85;;
78205;SDS011;67480;48.920;12.880;2024-03-08T09:22:22;8.57;;;6.05;;
78205;SDS011;67480;48.920;12.880;2024-03-08T09:24:48;7.07;;;5.70;;
78205;SDS011;67480;48.920;12.880;2024-03-08T09:27:13;8.82;;;6.00;;
78205;SDS011;67480;48.920;12.880;2024-03-08T09:29:38;7.82;;;5.75;;
78205;SDS011;67480;48.920;12.880;2024-03-08T09:32:04;7.47;;;5.60;;
78205;SDS011;67480;48.920;12.880;2024-03-08T09:34:29;7.25;;;5.82;;
78205;SDS011;67480;48.920;12.880;2024-03-08T09:36:55;6.22;;;5.35;;
78205;SDS011;67480;48.920;12.880;2024-03-08T09:39:20;6.32;;;5.10;;
78205;SDS011;67480;48.920;12.880;2024-03-08T09:41:46;5.90;;;5.30;;
78205;SDS011;67480;48.920;12.880;2024-03-08T09:44:15;6.47;;;5.40;;
78205;SDS011;67480;48.920;12.880;2024-03-08T09:46:42;7.45;;;5.65;;
78205;SDS011;67480;48.920;12.880;2024-03-08T09:49:07;7.85;;;5.70;;
78205;SDS011;67480;48.920;12.880;2024-03-08T09:51:34;20.42;;;15.50;;
78205;SDS011;67480;48.920;12.880;2024-03-08T09:54:01;19.08;;;13.70;;
78205;SDS011;67480;48.920;12.880;2024-03-08T09:56:29;16.35;;;12.40;;
78205;SDS011;67480;48.920;12.880;2024-03-08T09:59:00;12.07;;;9.52;;
78205;SDS011;67480;48.920;12.880;2024-03-08T10:01:44;9.80;;;7.63;;
78205;SDS011;67480;48.920;12.880;2024-03-08T10:04:09;11.07;;;7.85;;
78205;SDS011;67480;48.920;12.880;2024-03-08T10:06:35;10.27;;;7.10;;
78205;SDS011;67480;48.920;12.880;2024-03-08T10:09:01;8.52;;;6.25;;
78205;SDS011;67480;48.920;12.880;2024-03-08T10:11:26;8.23;;;6.05;;
78205;SDS011;67480;48.920;12.880;2024-03-08T10:13:52;14.07;;;5.93;;
78205;SDS011;67480;48.920;12.880;2024-03-08T10:16:17;12.07;;;6.40;;
78205;SDS011;67480;48.920;12.880;2024-03-08T10:18:44;14.13;;;5.47;;
78205;SDS011;67480;48.920;12.880;2024-03-08T10:21:11;9.30;;;6.13;;
78205;SDS011;67480;48.920;12.880;2024-03-08T10:23:36;10.38;;;5.55;;
78205;SDS011;67480;48.920;12.880;2024-03-08T10:26:15;8.00;;;5.70;;
78205;SDS011;67480;48.920;12.880;2024-03-08T10:28:45;6.07;;;5.40;;
78205;SDS011;67480;48.920;12.880;2024-03-08T10:31:15;8.00;;;5.18;;
78205;SDS011;67480;48.920;12.880;2024-03-08T10:33:44;6.38;;;5.07;;
78205;SDS011;67480;48.920;12.880;2024-03-08T10:36:10;13.27;;;5.88;;
78205;SDS011;67480;48.920;12.880;2024-03-08T10:38:38;7.07;;;5.35;;
78205;SDS011;67480;48.920;12.880;2024-03-08T10:41:06;7.07;;;4.70;;
78205;SDS011;67480;48.920;12.880;2024-03-08T10:43:52;6.38;;;5.00;;
78205;SDS011;67480;48.920;12.880;2024-03-08T10:46:43;5.65;;;4.40;;
78205;SDS011;67480;48.920;12.880;2024-03-08T10:49:16;6.55;;;4.65;;
78205;SDS011;67480;48.920;12.880;2024-03-08T10:51:42;7.55;;;4.80;;
78205;SDS011;67480;48.920;12.880;2024-03-08T10:54:09;6.63;;;4.68;;
78205;SDS011;67480;48.920;12.880;2024-03-08T10:56:36;5.95;;;4.25;;
78205;SDS011;67480;48.920;12.880;2024-03-08T10:59:02;4.82;;;4.28;;
78205;SDS011;67480;48.920;12.880;2024-03-08T11:01:29;4.88;;;4.13;;
78205;SDS011;67480;48.920;12.880;2024-03-08T11:03:55;5.38;;;4.53;;
78205;SDS011;67480;48.920;12.880;2024-03-08T11:06:22;4.80;;;4.30;;
78205;SDS011;67480;48.920;12.880;2024-03-08T11:08:55;6.97;;;4.88;;
78205;SDS011;67480;48.920;12.880;2024-03-08T11:11:26;6.65;;;4.97;;
78205;SDS011;67480;48.920;12.880;2024-03-08T11:13:53;6.15;;;4.47;;
78205;SDS011;67480;48.920;12.880;2024-03-08T11:19:07;5.95;;;4.60;;
78205;SDS011;67480;48.920;12.880;2024-03-08T11:21:59;6.03;;;4.72;;
78205;SDS011;67480;48.920;12.880;2024-03-08T11:24:26;5.63;;;4.88;;
78205;SDS011;67480;48.920;12.880;2024-03-08T11:26:54;6.10;;;5.22;;
78205;SDS011;67480;48.920;12.880;2024-03-08T11:32:04;6.50;;;5.00;;
78205;SDS011;67480;48.920;12.880;2024-03-08T11:34:33;6.63;;;5.38;;
78205;SDS011;67480;48.920;12.880;2024-03-08T11:36:58;6.85;;;5.50;;
78205;SDS011;67480;48.920;12.880;2024-03-08T11:39:24;5.80;;;5.13;;
78205;SDS011;67480;48.920;12.880;2024-03-08T11:41:50;7.47;;;4.97;;
78205;SDS011;67480;48.920;12.880;2024-03-08T11:44:16;6.80;;;5.03;;
78205;SDS011;67480;48.920;12.880;2024-03-08T11:46:42;14.95;;;5.18;;
78205;SDS011;67480;48.920;12.880;2024-03-08T11:49:12;7.22;;;5.05;;
78205;SDS011;67480;48.920;12.880;2024-03-08T11:51:37;7.25;;;5.50;;
78205;SDS011;67480;48.920;12.880;2024-03-08T11:54:03;6.57;;;5.40;;
78205;SDS011;67480;48.920;12.880;2024-03-08T11:56:28;6.13;;;5.22;;
78205;SDS011;67480;48.920;12.880;2024-03-08T11:58:54;9.65;;;5.38;;
78205;SDS011;67480;48.920;12.880;2024-03-08T12:01:24;6.75;;;5.57;;
78205;SDS011;67480;48.920;12.880;2024-03-08T12:03:53;7.28;;;6.13;;
78205;SDS011;67480;48.920;12.880;2024-03-08T12:06:19;7.63;;;5.72;;
78205;SDS011;67480;48.920;12.880;2024-03-08T12:08:45;58.05;;;9.85;;
78205;SDS011;67480;48.920;12.880;2024-03-08T12:11:14;11.82;;;5.28;;
78205;SDS011;67480;48.920;12.880;2024-03-08T12:13:39;8.68;;;5.82;;
78205;SDS011;67480;48.920;12.880;2024-03-08T12:16:06;8.32;;;5.82;;
78205;SDS011;67480;48.920;12.880;2024-03-08T12:18:33;9.20;;;6.45;;
78205;SDS011;67480;48.920;12.880;2024-03-08T12:21:06;9.77;;;6.63;;
78205;SDS011;67480;48.920;12.880;2024-03-08T12:23:35;8.27;;;5.88;;
78205;SDS011;67480;48.920;12.880;2024-03-08T12:28:41;7.05;;;5.72;;
78205;SDS011;67480;48.920;12.880;2024-03-08T12:31:09;7.25;;;5.55;;
78205;SDS011;67480;48.920;12.880;2024-03-08T12:34:00;6.85;;;5.70;;
78205;SDS011;67480;48.920;12.880;2024-03-08T12:36:25;6.68;;;5.40;;
78205;SDS011;67480;48.920;12.880;2024-03-08T12:38:51;8.40;;;5.80;;
78205;SDS011;67480;48.920;12.880;2024-03-08T12:41:19;8.52;;;5.60;;
78205;SDS011;67480;48.920;12.880;2024-03-08T12:43:46;7.82;;;5.60;;
78205;SDS011;67480;48.920;12.880;2024-03-08T12:46:17;7.40;;;5.88;;
78205;SDS011;67480;48.920;12.880;2024-03-08T12:48:45;7.35;;;5.78;;
78205;SDS011;67480;48.920;12.880;2024-03-08T12:51:12;8.48;;;5.15;;
78205;SDS011;67480;48.920;12.880;2024-03-08T12:53:45;7.67;;;5.73;;
78205;SDS011;67480;48.920;12.880;2024-03-08T12:56:11;8.32;;;6.25;;
78205;SDS011;67480;48.920;12.880;2024-03-08T12:58:37;8.55;;;5.85;;
78205;SDS011;67480;48.920;12.880;2024-03-08T13:01:05;8.63;;;5.85;;
78205;SDS011;67480;48.920;12.880;2024-03-08T13:03:34;7.32;;;5.90;;
78205;SDS011;67480;48.920;12.880;2024-03-08T13:06:05;8.05;;;5.90;;
78205;SDS011;67480;48.920;12.880;2024-03-08T13:08:37;11.75;;;6.82;;
78205;SDS011;67480;48.920;12.880;2024-03-08T13:11:04;8.88;;;6.38;;
78205;SDS011;67480;48.920;12.880;2024-03-08T13:13:30;9.15;;;6.22;;
78205;SDS011;67480;48.920;12.880;2024-03-08T13:15:55;7.93;;;6.10;;
78205;SDS011;67480;48.920;12.880;2024-03-08T13:18:21;7.75;;;6.30;;
78205;SDS011;67480;48.920;12.880;2024-03-08T13:20:47;8.05;;;6.05;;
78205;SDS011;67480;48.920;12.880;2024-03-08T13:23:16;10.30;;;6.63;;
78205;SDS011;67480;48.920;12.880;2024-03-08T13:25:42;8.38;;;6.38;;
78205;SDS011;67480;48.920;12.880;2024-03-08T13:28:08;8.75;;;6.70;;
78205;SDS011;67480;48.920;12.880;2024-03-08T13:30:34;9.32;;;7.05;;
78205;SDS011;67480;48.920;12.880;2024-03-08T13:33:00;8.65;;;6.35;;
78205;SDS011;67480;48.920;12.880;2024-03-08T13:35:26;8.90;;;7.25;;
78205;SDS011;67480;48.920;12.880;2024-03-08T13:37:53;10.57;;;7.78;;
78205;SDS011;67480;48.920;12.880;2024-03-08T13:40:18;8.07;;;6.43;;
78205;SDS011;67480;48.920;12.880;2024-03-08T13:42:45;7.93;;;6.30;;
78205;SDS011;67480;48.920;12.880;2024-03-08T13:45:11;8.63;;;6.80;;
78205;SDS011;67480;48.920;12.880;2024-03-08T13:47:37;9.48;;;6.60;;
78205;SDS011;67480;48.920;12.880;2024-03-08T13:50:04;9.07;;;6.95;;
78205;SDS011;67480;48.920;12.880;2024-03-08T13:52:32;11.25;;;7.20;;
78205;SDS011;67480;48.920;12.880;2024-03-08T13:54:59;8.73;;;6.95;;
78205;SDS011;67480;48.920;12.880;2024-03-08T13:57:25;8.77;;;7.30;;
78205;SDS011;67480;48.920;12.880;2024-03-08T13:59:52;8.30;;;6.85;;
78205;SDS011;67480;48.920;12.880;2024-03-08T14:02:17;8.65;;;6.45;;
78205;SDS011;67480;48.920;12.880;2024-03-08T14:04:43;9.43;;;7.00;;
78205;SDS011;67480;48.920;12.880;2024-03-08T14:07:09;8.93;;;7.53;;
78205;SDS011;67480;48.920;12.880;2024-03-08T14:09:36;10.13;;;7.18;;
78205;SDS011;67480;48.920;12.880;2024-03-08T14:12:03;9.68;;;7.45;;
78205;SDS011;67480;48.920;12.880;2024-03-08T14:14:32;9.80;;;6.38;;
78205;SDS011;67480;48.920;12.880;2024-03-08T14:17:00;9.25;;;6.57;;
78205;SDS011;67480;48.920;12.880;2024-03-08T14:19:27;9.15;;;6.78;;
78205;SDS011;67480;48.920;12.880;2024-03-08T14:21:52;8.98;;;6.95;;
78205;SDS011;67480;48.920;12.880;2024-03-08T14:24:18;10.23;;;7.55;;
78205;SDS011;67480;48.920;12.880;2024-03-08T14:26:44;9.68;;;6.75;;